sensor_id;sensor_type;location;lat;lon;timestamp;temperature;humidity
31455;DHT22;18084;53.028;8.834;2023-02-28T00:00:04;2.60;80.90
31455;DHT22;18084;53.028;8.834;2023-02-28T00:02:36;2.80;87.50
31455;DHT22;18084;53.028;8.834;2023-02-28T00:05:01;2.60;82.40
31455;DHT22;18084;53.028;8.834;2023-02-28T00:07:29;2.40;81.80
31455;DHT22;18084;53.028;8.834;2023-02-28T00:09:54;2.70;83.50
31455;DHT22;18084;53.028;8.834;2023-02-28T00:12:20;2.60;83.90
31455;DHT22;18084;53.028;8.834;2023-02-28T00:14:46;2.60;89.20
31455;DHT22;18084;53.028;8.834;2023-02-28T00:17:11;2.70;91.30
31455;DHT22;18084;53.028;8.834;2023-02-28T00:19:37;2.60;90.10
31455;DHT22;18084;53.028;8.834;2023-02-28T00:22:02;2.70;88.50
31455;DHT22;18084;53.028;8.834;2023-02-28T00:24:27;2.60;88.80
31455;DHT22;18084;53.028;8.834;2023-02-28T00:26:53;2.50;91.00
31455;DHT22;18084;53.028;8.834;2023-02-28T00:29:18;2.50;92.80
31455;DHT22;18084;53.028;8.834;2023-02-28T00:31:44;2.50;95.10
31455;DHT22;18084;53.028;8.834;2023-02-28T00:34:09;2.50;94.60
31455;DHT22;18084;53.028;8.834;2023-02-28T00:36:35;4.60;96.90
31455;DHT22;18084;53.028;8.834;2023-02-28T00:39:00;2.50;95.30
31455;DHT22;18084;53.028;8.834;2023-02-28T00:41:26;2.60;95.10
31455;DHT22;18084;53.028;8.834;2023-02-28T00:43:51;2.60;96.00
31455;DHT22;18084;53.028;8.834;2023-02-28T00:46:16;2.60;95.50
31455;DHT22;18084;53.028;8.834;2023-02-28T00:48:42;2.60;95.60
31455;DHT22;18084;53.028;8.834;2023-02-28T00:51:07;2.50;94.90
31455;DHT22;18084;53.028;8.834;2023-02-28T00:53:33;2.50;92.90
31455;DHT22;18084;53.028;8.834;2023-02-28T00:55:58;2.50;86.70
31455;DHT22;18084;53.028;8.834;2023-02-28T00:58:24;1.90;85.50
31455;DHT22;18084;53.028;8.834;2023-02-28T01:00:51;2.40;88.00
31455;DHT22;18084;53.028;8.834;2023-02-28T01:03:17;2.40;91.40
31455;DHT22;18084;53.028;8.834;2023-02-28T01:05:42;2.50;94.30
31455;DHT22;18084;53.028;8.834;2023-02-28T01:08:08;2.40;96.00
31455;DHT22;18084;53.028;8.834;2023-02-28T01:10:33;2.40;97.80
31455;DHT22;18084;53.028;8.834;2023-02-28T01:12:59;2.30;95.00
31455;DHT22;18084;53.028;8.834;2023-02-28T01:15:24;2.30;94.70
31455;DHT22;18084;53.028;8.834;2023-02-28T01:17:49;2.30;96.90
31455;DHT22;18084;53.028;8.834;2023-02-28T01:20:15;2.20;98.10
31455;DHT22;18084;53.028;8.834;2023-02-28T01:22:40;2.30;99.90
31455;DHT22;18084;53.028;8.834;2023-02-28T01:25:06;2.20;99.90
31455;DHT22;18084;53.028;8.834;2023-02-28T01:27:32;2.40;99.90
31455;DHT22;18084;53.028;8.834;2023-02-28T01:29:58;2.30;99.90
31455;DHT22;18084;53.028;8.834;2023-02-28T01:32:24;2.10;98.80
31455;DHT22;18084;53.028;8.834;2023-02-28T01:34:49;3.30;99.40
31455;DHT22;18084;53.028;8.834;2023-02-28T01:37:15;2.10;96.10
31455;DHT22;18084;53.028;8.834;2023-02-28T01:39:40;2.20;97.30
31455;DHT22;18084;53.028;8.834;2023-02-28T01:42:07;2.30;93.30
31455;DHT22;18084;53.028;8.834;2023-02-28T01:47:17;2.30;88.40
31455;DHT22;18084;53.028;8.834;2023-02-28T01:49:43;2.10;87.10
31455;DHT22;18084;53.028;8.834;2023-02-28T01:52:08;2.00;86.80
31455;DHT22;18084;53.028;8.834;2023-02-28T01:54:44;2.40;90.50
31455;DHT22;18084;53.028;8.834;2023-02-28T01:57:11;2.20;87.00
31455;DHT22;18084;53.028;8.834;2023-02-28T01:59:59;2.20;85.10
31455;DHT22;18084;53.028;8.834;2023-02-28T02:02:26;2.30;75.90
31455;DHT22;18084;53.028;8.834;2023-02-28T02:04:57;2.20;64.20
31455;DHT22;18084;53.028;8.834;2023-02-28T02:07:23;2.30;66.80
31455;DHT22;18084;53.028;8.834;2023-02-28T02:09:50;2.20;70.80
31455;DHT22;18084;53.028;8.834;2023-02-28T02:12:26;2.10;73.80
31455;DHT22;18084;53.028;8.834;2023-02-28T02:15:02;2.20;69.80
31455;DHT22;18084;53.028;8.834;2023-02-28T02:17:34;2.30;56.70
31455;DHT22;18084;53.028;8.834;2023-02-28T02:20:16;2.30;54.80
31455;DHT22;18084;53.028;8.834;2023-02-28T02:29:05;2.20;32.90
31455;DHT22;18084;53.028;8.834;2023-02-28T02:31:24;2.10;34.10
31455;DHT22;18084;53.028;8.834;2023-02-28T02:36:38;2.10;30.60
31455;DHT22;18084;53.028;8.834;2023-02-28T02:39:17;2.10;37.00
31455;DHT22;18084;53.028;8.834;2023-02-28T02:41:51;2.10;32.00
31455;DHT22;18084;53.028;8.834;2023-02-28T02:44:19;2.00;32.20
31455;DHT22;18084;53.028;8.834;2023-02-28T02:46:47;1.90;31.90
31455;DHT22;18084;53.028;8.834;2023-02-28T02:49:21;1.90;34.60
31455;DHT22;18084;53.028;8.834;2023-02-28T02:51:48;1.90;34.60
31455;DHT22;18084;53.028;8.834;2023-02-28T02:54:19;1.80;37.30
31455;DHT22;18084;53.028;8.834;2023-02-28T02:56:46;1.80;40.20
31455;DHT22;18084;53.028;8.834;2023-02-28T02:59:12;1.70;34.00
31455;DHT22;18084;53.028;8.834;2023-02-28T03:01:39;1.60;39.70
31455;DHT22;18084;53.028;8.834;2023-02-28T03:04:10;1.50;43.40
31455;DHT22;18084;53.028;8.834;2023-02-28T03:06:36;1.60;46.60
31455;DHT22;18084;53.028;8.834;2023-02-28T03:09:01;3.70;46.80
31455;DHT22;18084;53.028;8.834;2023-02-28T03:11:27;1.40;53.80
31455;DHT22;18084;53.028;8.834;2023-02-28T03:16:29;1.40;59.60
31455;DHT22;18084;53.028;8.834;2023-02-28T03:21:43;1.30;64.10
31455;DHT22;18084;53.028;8.834;2023-02-28T03:24:24;1.00;71.30
31455;DHT22;18084;53.028;8.834;2023-02-28T03:26:53;1.30;64.00
31455;DHT22;18084;53.028;8.834;2023-02-28T03:34:50;1.20;67.20
31455;DHT22;18084;53.028;8.834;2023-02-28T03:37:20;1.20;63.30
31455;DHT22;18084;53.028;8.834;2023-02-28T03:39:48;1.00;66.80
31455;DHT22;18084;53.028;8.834;2023-02-28T03:42:16;0.90;73.80
31455;DHT22;18084;53.028;8.834;2023-02-28T03:44:45;0.70;74.60
31455;DHT22;18084;53.028;8.834;2023-02-28T03:47:19;0.70;78.90
31455;DHT22;18084;53.028;8.834;2023-02-28T03:49:49;0.80;83.80
31455;DHT22;18084;53.028;8.834;2023-02-28T03:52:16;0.60;90.30
31455;DHT22;18084;53.028;8.834;2023-02-28T03:54:44;0.60;94.00
31455;DHT22;18084;53.028;8.834;2023-02-28T03:57:26;0.60;95.40
31455;DHT22;18084;53.028;8.834;2023-02-28T03:59:55;0.70;92.10
31455;DHT22;18084;53.028;8.834;2023-02-28T04:02:21;0.50;91.40
31455;DHT22;18084;53.028;8.834;2023-02-28T04:04:46;0.40;95.10
31455;DHT22;18084;53.028;8.834;2023-02-28T04:07:14;-0.30;94.50
31455;DHT22;18084;53.028;8.834;2023-02-28T04:09:39;0.30;94.60
31455;DHT22;18084;53.028;8.834;2023-02-28T04:12:05;0.00;97.90
31455;DHT22;18084;53.028;8.834;2023-02-28T04:14:31;0.30;99.70
31455;DHT22;18084;53.028;8.834;2023-02-28T04:16:56;-0.20;99.90
31455;DHT22;18084;53.028;8.834;2023-02-28T04:19:22;0.20;99.90
31455;DHT22;18084;53.028;8.834;2023-02-28T04:21:48;0.10;99.60
31455;DHT22;18084;53.028;8.834;2023-02-28T04:24:15;0.00;99.90
31455;DHT22;18084;53.028;8.834;2023-02-28T04:26:42;0.10;99.90
31455;DHT22;18084;53.028;8.834;2023-02-28T04:29:09;-0.10;99.90
31455;DHT22;18084;53.028;8.834;2023-02-28T04:31:35;-0.20;99.90
31455;DHT22;18084;53.028;8.834;2023-02-28T04:34:00;-0.20;99.90
31455;DHT22;18084;53.028;8.834;2023-02-28T04:36:26;-0.10;99.90
31455;DHT22;18084;53.028;8.834;2023-02-28T04:38:51;2.40;99.90
31455;DHT22;18084;53.028;8.834;2023-02-28T04:41:17;-0.10;99.90
31455;DHT22;18084;53.028;8.834;2023-02-28T04:43:43;-0.20;99.90
31455;DHT22;18084;53.028;8.834;2023-02-28T04:46:08;-0.20;99.90
31455;DHT22;18084;53.028;8.834;2023-02-28T04:48:35;-0.20;99.90
31455;DHT22;18084;53.028;8.834;2023-02-28T04:51:01;-0.20;99.90
31455;DHT22;18084;53.028;8.834;2023-02-28T04:53:27;-0.20;99.90
31455;DHT22;18084;53.028;8.834;2023-02-28T04:55:53;-0.10;99.90
31455;DHT22;18084;53.028;8.834;2023-02-28T04:58:19;-0.20;99.90
31455;DHT22;18084;53.028;8.834;2023-02-28T05:00:44;-0.40;99.90
31455;DHT22;18084;53.028;8.834;2023-02-28T05:03:10;-0.30;99.90
31455;DHT22;18084;53.028;8.834;2023-02-28T05:05:35;-0.20;99.90
31455;DHT22;18084;53.028;8.834;2023-02-28T05:08:00;-0.30;99.90
31455;DHT22;18084;53.028;8.834;2023-02-28T05:10:26;-0.50;99.90
31455;DHT22;18084;53.028;8.834;2023-02-28T05:12:52;-0.40;99.90
31455;DHT22;18084;53.028;8.834;2023-02-28T05:15:17;-0.40;99.90
31455;DHT22;18084;53.028;8.834;2023-02-28T05:17:43;1.90;99.90
31455;DHT22;18084;53.028;8.834;2023-02-28T05:20:09;-0.50;99.90
31455;DHT22;18084;53.028;8.834;2023-02-28T05:22:39;-0.50;99.90
31455;DHT22;18084;53.028;8.834;2023-02-28T05:25:04;-0.70;99.90
31455;DHT22;18084;53.028;8.834;2023-02-28T05:27:30;-0.60;99.90
31455;DHT22;18084;53.028;8.834;2023-02-28T05:29:56;-0.70;99.90
31455;DHT22;18084;53.028;8.834;2023-02-28T05:32:21;-0.80;99.90
31455;DHT22;18084;53.028;8.834;2023-02-28T05:34:47;0.70;99.90
31455;DHT22;18084;53.028;8.834;2023-02-28T05:37:13;-0.90;99.90
31455;DHT22;18084;53.028;8.834;2023-02-28T05:39:39;-0.90;99.90
31455;DHT22;18084;53.028;8.834;2023-02-28T05:42:04;-0.90;99.90
31455;DHT22;18084;53.028;8.834;2023-02-28T05:44:30;-1.10;99.90
31455;DHT22;18084;53.028;8.834;2023-02-28T05:46:55;-1.10;99.90
31455;DHT22;18084;53.028;8.834;2023-02-28T05:49:21;-1.10;99.90
31455;DHT22;18084;53.028;8.834;2023-02-28T05:51:46;-1.20;99.90
31455;DHT22;18084;53.028;8.834;2023-02-28T05:54:12;-1.10;99.90
31455;DHT22;18084;53.028;8.834;2023-02-28T05:56:38;-1.40;99.90
31455;DHT22;18084;53.028;8.834;2023-02-28T05:59:05;-1.20;99.90
31455;DHT22;18084;53.028;8.834;2023-02-28T06:01:32;-1.30;99.90
31455;DHT22;18084;53.028;8.834;2023-02-28T06:04:01;-1.10;99.90
31455;DHT22;18084;53.028;8.834;2023-02-28T06:06:27;-1.00;99.90
31455;DHT22;18084;53.028;8.834;2023-02-28T06:08:53;-1.20;99.90
31455;DHT22;18084;53.028;8.834;2023-02-28T06:11:19;-1.20;99.90
31455;DHT22;18084;53.028;8.834;2023-02-28T06:13:45;-1.30;99.90
31455;DHT22;18084;53.028;8.834;2023-02-28T06:16:11;-1.10;99.90
31455;DHT22;18084;53.028;8.834;2023-02-28T06:18:36;-1.10;99.90
31455;DHT22;18084;53.028;8.834;2023-02-28T06:21:02;-0.70;99.90
31455;DHT22;18084;53.028;8.834;2023-02-28T06:23:28;-1.20;99.90
31455;DHT22;18084;53.028;8.834;2023-02-28T06:25:53;-1.10;99.90
31455;DHT22;18084;53.028;8.834;2023-02-28T06:28:22;-1.30;99.90
31455;DHT22;18084;53.028;8.834;2023-02-28T06:30:48;-1.20;99.90
31455;DHT22;18084;53.028;8.834;2023-02-28T06:33:13;-1.30;99.90
31455;DHT22;18084;53.028;8.834;2023-02-28T06:35:39;-1.30;99.90
31455;DHT22;18084;53.028;8.834;2023-02-28T06:38:04;-1.30;99.90
31455;DHT22;18084;53.028;8.834;2023-02-28T06:40:30;-1.20;99.90
31455;DHT22;18084;53.028;8.834;2023-02-28T06:42:59;-1.20;99.90
31455;DHT22;18084;53.028;8.834;2023-02-28T06:45:24;-1.10;99.90
31455;DHT22;18084;53.028;8.834;2023-02-28T06:47:51;-1.00;99.90
31455;DHT22;18084;53.028;8.834;2023-02-28T06:50:17;-1.00;99.90
31455;DHT22;18084;53.028;8.834;2023-02-28T06:52:45;-1.20;99.90
31455;DHT22;18084;53.028;8.834;2023-02-28T06:55:11;-1.10;99.90
31455;DHT22;18084;53.028;8.834;2023-02-28T06:57:37;-0.90;99.90
31455;DHT22;18084;53.028;8.834;2023-02-28T07:00:04;-0.80;99.90
31455;DHT22;18084;53.028;8.834;2023-02-28T07:02:30;0.20;99.90
31455;DHT22;18084;53.028;8.834;2023-02-28T07:04:56;-1.00;99.90
31455;DHT22;18084;53.028;8.834;2023-02-28T07:07:22;-0.80;99.90
31455;DHT22;18084;53.028;8.834;2023-02-28T07:09:47;-0.80;99.90
31455;DHT22;18084;53.028;8.834;2023-02-28T07:12:13;-0.80;99.90
31455;DHT22;18084;53.028;8.834;2023-02-28T07:14:38;-0.70;99.90
31455;DHT22;18084;53.028;8.834;2023-02-28T07:17:04;-0.60;99.90
31455;DHT22;18084;53.028;8.834;2023-02-28T07:19:31;-0.50;99.90
31455;DHT22;18084;53.028;8.834;2023-02-28T07:21:57;0.90;99.90
31455;DHT22;18084;53.028;8.834;2023-02-28T07:24:22;-0.40;99.90
31455;DHT22;18084;53.028;8.834;2023-02-28T07:26:51;-0.60;99.90
31455;DHT22;18084;53.028;8.834;2023-02-28T07:29:16;-0.30;99.90
31455;DHT22;18084;53.028;8.834;2023-02-28T07:31:41;-0.20;99.90
31455;DHT22;18084;53.028;8.834;2023-02-28T07:34:07;-0.10;99.90
31455;DHT22;18084;53.028;8.834;2023-02-28T07:36:32;-0.10;99.90
31455;DHT22;18084;53.028;8.834;2023-02-28T07:38:58;-0.10;99.90
31455;DHT22;18084;53.028;8.834;2023-02-28T07:41:24;-0.10;99.90
31455;DHT22;18084;53.028;8.834;2023-02-28T07:43:55;2.80;97.30
31455;DHT22;18084;53.028;8.834;2023-02-28T07:46:22;0.10;99.90
31455;DHT22;18084;53.028;8.834;2023-02-28T07:48:48;0.10;98.30
31455;DHT22;18084;53.028;8.834;2023-02-28T07:51:13;0.10;97.10
31455;DHT22;18084;53.028;8.834;2023-02-28T07:53:39;0.20;93.40
31455;DHT22;18084;53.028;8.834;2023-02-28T07:56:05;0.10;87.60
31455;DHT22;18084;53.028;8.834;2023-02-28T07:58:30;0.30;93.40
31455;DHT22;18084;53.028;8.834;2023-02-28T08:00:57;0.30;92.70
31455;DHT22;18084;53.028;8.834;2023-02-28T08:03:29;0.40;89.20
31455;DHT22;18084;53.028;8.834;2023-02-28T08:05:54;0.40;85.70
31455;DHT22;18084;53.028;8.834;2023-02-28T08:08:20;0.60;85.20
31455;DHT22;18084;53.028;8.834;2023-02-28T08:10:45;0.60;78.40
31455;DHT22;18084;53.028;8.834;2023-02-28T08:13:11;0.60;75.60
31455;DHT22;18084;53.028;8.834;2023-02-28T08:15:36;1.20;72.90
31455;DHT22;18084;53.028;8.834;2023-02-28T08:18:02;2.70;44.10
31455;DHT22;18084;53.028;8.834;2023-02-28T08:20:27;5.70;1.00
31455;DHT22;18084;53.028;8.834;2023-02-28T08:22:53;4.90;99.90
31455;DHT22;18084;53.028;8.834;2023-02-28T08:25:18;5.80;99.90
31455;DHT22;18084;53.028;8.834;2023-02-28T08:27:44;7.20;1.00
31455;DHT22;18084;53.028;8.834;2023-02-28T08:30:12;8.00;99.90
31455;DHT22;18084;53.028;8.834;2023-02-28T08:32:39;8.70;25.30
31455;DHT22;18084;53.028;8.834;2023-02-28T08:35:04;9.70;99.90
31455;DHT22;18084;53.028;8.834;2023-02-28T08:37:30;10.80;99.90
31455;DHT22;18084;53.028;8.834;2023-02-28T08:39:55;11.10;1.00
31455;DHT22;18084;53.028;8.834;2023-02-28T08:42:21;12.40;99.90
31455;DHT22;18084;53.028;8.834;2023-02-28T08:44:49;11.90;94.40
31455;DHT22;18084;53.028;8.834;2023-02-28T08:47:15;13.00;1.00
31455;DHT22;18084;53.028;8.834;2023-02-28T08:49:40;12.80;1.00
31455;DHT22;18084;53.028;8.834;2023-02-28T08:52:06;12.50;1.00
31455;DHT22;18084;53.028;8.834;2023-02-28T08:54:31;12.20;1.00
31455;DHT22;18084;53.028;8.834;2023-02-28T08:56:58;12.80;1.00
31455;DHT22;18084;53.028;8.834;2023-02-28T08:59:23;13.30;1.00
31455;DHT22;18084;53.028;8.834;2023-02-28T09:01:49;13.60;1.00
31455;DHT22;18084;53.028;8.834;2023-02-28T09:04:14;12.90;1.00
31455;DHT22;18084;53.028;8.834;2023-02-28T09:06:40;13.60;99.90
31455;DHT22;18084;53.028;8.834;2023-02-28T09:09:05;13.80;99.90
31455;DHT22;18084;53.028;8.834;2023-02-28T09:11:33;13.10;99.90
31455;DHT22;18084;53.028;8.834;2023-02-28T09:13:58;13.90;99.90
31455;DHT22;18084;53.028;8.834;2023-02-28T09:16:25;14.70;99.90
31455;DHT22;18084;53.028;8.834;2023-02-28T09:18:51;14.50;99.90
31455;DHT22;18084;53.028;8.834;2023-02-28T09:21:17;13.70;99.90
31455;DHT22;18084;53.028;8.834;2023-02-28T09:23:43;14.00;99.90
31455;DHT22;18084;53.028;8.834;2023-02-28T09:26:13;13.30;99.90
31455;DHT22;18084;53.028;8.834;2023-02-28T09:28:39;13.60;99.90
31455;DHT22;18084;53.028;8.834;2023-02-28T09:31:04;14.40;99.90
31455;DHT22;18084;53.028;8.834;2023-02-28T09:33:29;13.60;99.90
31455;DHT22;18084;53.028;8.834;2023-02-28T09:35:59;14.20;99.90
31455;DHT22;18084;53.028;8.834;2023-02-28T09:38:25;13.50;99.90
31455;DHT22;18084;53.028;8.834;2023-02-28T09:40:58;13.30;99.90
31455;DHT22;18084;53.028;8.834;2023-02-28T09:43:26;14.30;99.90
31455;DHT22;18084;53.028;8.834;2023-02-28T09:45:53;14.10;99.90
31455;DHT22;18084;53.028;8.834;2023-02-28T09:48:25;14.70;99.90
31455;DHT22;18084;53.028;8.834;2023-02-28T09:51:05;13.40;99.90
31455;DHT22;18084;53.028;8.834;2023-02-28T09:53:35;14.20;99.90
31455;DHT22;18084;53.028;8.834;2023-02-28T09:56:07;14.20;99.90
31455;DHT22;18084;53.028;8.834;2023-02-28T09:58:37;14.00;99.90
31455;DHT22;18084;53.028;8.834;2023-02-28T10:03:56;13.00;99.90
31455;DHT22;18084;53.028;8.834;2023-02-28T10:06:26;12.50;99.90
31455;DHT22;18084;53.028;8.834;2023-02-28T10:09:00;12.60;99.90
31455;DHT22;18084;53.028;8.834;2023-02-28T10:11:26;11.80;99.90
31455;DHT22;18084;53.028;8.834;2023-02-28T10:13:53;12.20;99.90
31455;DHT22;18084;53.028;8.834;2023-02-28T10:16:36;12.20;99.90
31455;DHT22;18084;53.028;8.834;2023-02-28T10:21:31;12.60;99.90
31455;DHT22;18084;53.028;8.834;2023-02-28T10:24:02;12.20;99.90
31455;DHT22;18084;53.028;8.834;2023-02-28T10:26:28;11.90;99.90
31455;DHT22;18084;53.028;8.834;2023-02-28T10:28:53;12.30;99.90
31455;DHT22;18084;53.028;8.834;2023-02-28T10:31:19;12.00;99.90
31455;DHT22;18084;53.028;8.834;2023-02-28T10:33:45;11.90;99.90
31455;DHT22;18084;53.028;8.834;2023-02-28T10:36:18;11.30;99.90
31455;DHT22;18084;53.028;8.834;2023-02-28T10:38:44;10.20;99.90
31455;DHT22;18084;53.028;8.834;2023-02-28T10:41:11;10.20;99.90
31455;DHT22;18084;53.028;8.834;2023-02-28T10:43:38;9.80;99.90
31455;DHT22;18084;53.028;8.834;2023-02-28T10:48:36;9.80;99.90
31455;DHT22;18084;53.028;8.834;2023-02-28T10:51:03;9.30;99.90
31455;DHT22;18084;53.028;8.834;2023-02-28T10:53:34;8.90;99.90
31455;DHT22;18084;53.028;8.834;2023-02-28T10:56:04;8.70;99.90
31455;DHT22;18084;53.028;8.834;2023-02-28T10:58:52;8.90;99.90
31455;DHT22;18084;53.028;8.834;2023-02-28T11:01:33;8.90;99.90
31455;DHT22;18084;53.028;8.834;2023-02-28T11:03:59;8.90;99.90
31455;DHT22;18084;53.028;8.834;2023-02-28T11:06:32;8.50;99.90
31455;DHT22;18084;53.028;8.834;2023-02-28T11:08:59;8.70;99.90
31455;DHT22;18084;53.028;8.834;2023-02-28T11:11:26;8.70;99.90
31455;DHT22;18084;53.028;8.834;2023-02-28T11:13:53;8.70;99.90
31455;DHT22;18084;53.028;8.834;2023-02-28T11:16:19;8.70;1.00
31455;DHT22;18084;53.028;8.834;2023-02-28T11:18:50;8.60;1.00
31455;DHT22;18084;53.028;8.834;2023-02-28T11:21:16;8.40;99.90
31455;DHT22;18084;53.028;8.834;2023-02-28T11:23:43;8.40;99.90
31455;DHT22;18084;53.028;8.834;2023-02-28T11:26:09;8.40;1.00
31455;DHT22;18084;53.028;8.834;2023-02-28T11:28:41;8.30;1.00
31455;DHT22;18084;53.028;8.834;2023-02-28T11:33:43;8.10;1.00
31455;DHT22;18084;53.028;8.834;2023-02-28T11:36:31;8.10;1.00
31455;DHT22;18084;53.028;8.834;2023-02-28T11:38:59;8.40;1.00
31455;DHT22;18084;53.028;8.834;2023-02-28T11:47:14;8.20;1.00
31455;DHT22;18084;53.028;8.834;2023-02-28T11:52:14;8.30;1.00
31455;DHT22;18084;53.028;8.834;2023-02-28T11:57:43;8.50;1.00
31455;DHT22;18084;53.028;8.834;2023-02-28T12:00:06;8.20;1.00
31455;DHT22;18084;53.028;8.834;2023-02-28T12:05:33;8.30;1.00
31455;DHT22;18084;53.028;8.834;2023-02-28T12:08:09;8.40;1.00
31455;DHT22;18084;53.028;8.834;2023-02-28T12:13:21;8.50;1.00
31455;DHT22;18084;53.028;8.834;2023-02-28T12:21:01;9.00;1.00
31455;DHT22;18084;53.028;8.834;2023-02-28T12:26:00;8.40;1.00
31455;DHT22;18084;53.028;8.834;2023-02-28T12:28:29;8.60;1.00
31455;DHT22;18084;53.028;8.834;2023-02-28T12:31:02;8.70;1.00
31455;DHT22;18084;53.028;8.834;2023-02-28T12:33:33;8.80;1.00
31455;DHT22;18084;53.028;8.834;2023-02-28T12:36:01;9.00;99.90
31455;DHT22;18084;53.028;8.834;2023-02-28T12:38:29;9.30;1.00
31455;DHT22;18084;53.028;8.834;2023-02-28T12:41:00;8.90;1.00
31455;DHT22;18084;53.028;8.834;2023-02-28T12:43:33;9.00;1.00
31455;DHT22;18084;53.028;8.834;2023-02-28T12:48:59;8.60;99.90
31455;DHT22;18084;53.028;8.834;2023-02-28T12:51:25;8.80;99.90
31455;DHT22;18084;53.028;8.834;2023-02-28T12:56:32;9.20;99.90
31455;DHT22;18084;53.028;8.834;2023-02-28T12:59:10;9.20;99.90
31455;DHT22;18084;53.028;8.834;2023-02-28T13:01:50;9.10;99.90
31455;DHT22;18084;53.028;8.834;2023-02-28T13:04:32;9.00;99.90
31455;DHT22;18084;53.028;8.834;2023-02-28T13:07:17;9.00;1.00
31455;DHT22;18084;53.028;8.834;2023-02-28T13:09:53;9.20;1.00
31455;DHT22;18084;53.028;8.834;2023-02-28T13:12:19;9.20;1.00
31455;DHT22;18084;53.028;8.834;2023-02-28T13:14:45;8.60;1.00
31455;DHT22;18084;53.028;8.834;2023-02-28T13:17:12;9.00;1.00
31455;DHT22;18084;53.028;8.834;2023-02-28T13:22:15;8.70;1.00
31455;DHT22;18084;53.028;8.834;2023-02-28T13:24:54;8.60;1.00
31455;DHT22;18084;53.028;8.834;2023-02-28T13:29:49;9.20;99.90
31455;DHT22;18084;53.028;8.834;2023-02-28T13:32:19;8.90;99.90
31455;DHT22;18084;53.028;8.834;2023-02-28T13:42:33;9.00;99.90
31455;DHT22;18084;53.028;8.834;2023-02-28T13:47:39;8.70;99.90
31455;DHT22;18084;53.028;8.834;2023-02-28T13:50:15;8.70;99.90
31455;DHT22;18084;53.028;8.834;2023-02-28T13:52:48;8.90;99.90
31455;DHT22;18084;53.028;8.834;2023-02-28T13:55:19;8.50;99.90
31455;DHT22;18084;53.028;8.834;2023-02-28T14:03:01;8.70;1.00
31455;DHT22;18084;53.028;8.834;2023-02-28T14:05:29;9.00;1.00
31455;DHT22;18084;53.028;8.834;2023-02-28T14:07:58;9.30;1.00
31455;DHT22;18084;53.028;8.834;2023-02-28T14:10:31;9.10;99.90
31455;DHT22;18084;53.028;8.834;2023-02-28T14:13:02;8.70;99.90
31455;DHT22;18084;53.028;8.834;2023-02-28T14:17:54;8.90;99.90
31455;DHT22;18084;53.028;8.834;2023-02-28T14:20:20;9.00;99.90
31455;DHT22;18084;53.028;8.834;2023-02-28T14:22:58;8.90;99.90
31455;DHT22;18084;53.028;8.834;2023-02-28T14:25:33;8.90;99.90
31455;DHT22;18084;53.028;8.834;2023-02-28T14:38:18;8.60;99.90
31455;DHT22;18084;53.028;8.834;2023-02-28T14:40:47;8.70;99.90
31455;DHT22;18084;53.028;8.834;2023-02-28T14:43:22;8.20;99.90
31455;DHT22;18084;53.028;8.834;2023-02-28T14:45:49;8.70;99.90
31455;DHT22;18084;53.028;8.834;2023-02-28T14:48:15;10.40;99.90
31455;DHT22;18084;53.028;8.834;2023-02-28T14:54:52;8.40;99.90
31455;DHT22;18084;53.028;8.834;2023-02-28T14:57:24;8.40;99.90
31455;DHT22;18084;53.028;8.834;2023-02-28T15:00:46;8.30;99.90
31455;DHT22;18084;53.028;8.834;2023-02-28T15:03:50;8.50;99.90
31455;DHT22;18084;53.028;8.834;2023-02-28T15:06:16;8.70;99.90
31455;DHT22;18084;53.028;8.834;2023-02-28T15:08:43;8.60;99.90
31455;DHT22;18084;53.028;8.834;2023-02-28T15:11:13;8.50;99.90
31455;DHT22;18084;53.028;8.834;2023-02-28T15:13:43;8.20;99.90
31455;DHT22;18084;53.028;8.834;2023-02-28T15:19:00;8.30;99.90
31455;DHT22;18084;53.028;8.834;2023-02-28T15:21:35;8.40;99.90
31455;DHT22;18084;53.028;8.834;2023-02-28T15:26:43;8.40;99.90
31455;DHT22;18084;53.028;8.834;2023-02-28T15:29:20;8.20;99.90
31455;DHT22;18084;53.028;8.834;2023-02-28T15:31:56;8.10;99.90
31455;DHT22;18084;53.028;8.834;2023-02-28T15:34:40;8.00;99.90
31455;DHT22;18084;53.028;8.834;2023-02-28T15:39:55;7.90;99.90
31455;DHT22;18084;53.028;8.834;2023-02-28T15:42:23;7.90;99.90
31455;DHT22;18084;53.028;8.834;2023-02-28T15:44:49;7.90;99.90
31455;DHT22;18084;53.028;8.834;2023-02-28T15:47:16;7.80;99.90
31455;DHT22;18084;53.028;8.834;2023-02-28T15:52:18;7.80;99.90
31455;DHT22;18084;53.028;8.834;2023-02-28T15:54:45;7.70;99.90
31455;DHT22;18084;53.028;8.834;2023-02-28T15:57:35;7.50;99.90
31455;DHT22;18084;53.028;8.834;2023-02-28T16:00:03;7.40;99.90
31455;DHT22;18084;53.028;8.834;2023-02-28T16:02:37;7.30;99.90
31455;DHT22;18084;53.028;8.834;2023-02-28T16:07:36;7.20;99.90
31455;DHT22;18084;53.028;8.834;2023-02-28T16:10:03;7.00;99.90
31455;DHT22;18084;53.028;8.834;2023-02-28T16:12:31;7.00;1.00
31455;DHT22;18084;53.028;8.834;2023-02-28T16:15:01;7.00;1.00
31455;DHT22;18084;53.028;8.834;2023-02-28T16:17:38;7.00;1.00
31455;DHT22;18084;53.028;8.834;2023-02-28T16:22:43;6.90;1.00
31455;DHT22;18084;53.028;8.834;2023-02-28T16:25:14;6.80;1.00
31455;DHT22;18084;53.028;8.834;2023-02-28T16:27:41;6.80;1.00
31455;DHT22;18084;53.028;8.834;2023-02-28T16:30:19;6.80;1.00
31455;DHT22;18084;53.028;8.834;2023-02-28T16:32:46;6.70;1.00
31455;DHT22;18084;53.028;8.834;2023-02-28T16:35:12;6.60;1.00
31455;DHT22;18084;53.028;8.834;2023-02-28T16:37:40;6.60;1.00
31455;DHT22;18084;53.028;8.834;2023-02-28T16:40:13;6.50;1.00
31455;DHT22;18084;53.028;8.834;2023-02-28T16:42:40;6.40;16.70
31455;DHT22;18084;53.028;8.834;2023-02-28T16:45:05;6.40;7.80
31455;DHT22;18084;53.028;8.834;2023-02-28T16:47:31;6.30;1.00
31455;DHT22;18084;53.028;8.834;2023-02-28T16:49:58;6.20;1.00
31455;DHT22;18084;53.028;8.834;2023-02-28T16:52:23;6.20;57.90
31455;DHT22;18084;53.028;8.834;2023-02-28T16:54:49;6.10;80.80
31455;DHT22;18084;53.028;8.834;2023-02-28T16:57:19;6.00;99.90
31455;DHT22;18084;53.028;8.834;2023-02-28T16:59:46;6.00;99.90
31455;DHT22;18084;53.028;8.834;2023-02-28T17:02:14;5.90;99.90
31455;DHT22;18084;53.028;8.834;2023-02-28T17:04:40;5.90;99.90
31455;DHT22;18084;53.028;8.834;2023-02-28T17:07:09;5.80;1.00
31455;DHT22;18084;53.028;8.834;2023-02-28T17:09:36;5.80;5.90
31455;DHT22;18084;53.028;8.834;2023-02-28T17:12:01;5.80;99.90
31455;DHT22;18084;53.028;8.834;2023-02-28T17:14:27;5.70;99.90
31455;DHT22;18084;53.028;8.834;2023-02-28T17:16:52;5.60;99.90
31455;DHT22;18084;53.028;8.834;2023-02-28T17:19:18;5.60;99.90
31455;DHT22;18084;53.028;8.834;2023-02-28T17:21:44;5.50;99.90
31455;DHT22;18084;53.028;8.834;2023-02-28T17:24:10;5.40;99.90
31455;DHT22;18084;53.028;8.834;2023-02-28T17:26:38;5.20;99.90
31455;DHT22;18084;53.028;8.834;2023-02-28T17:29:09;5.20;1.00
31455;DHT22;18084;53.028;8.834;2023-02-28T17:31:38;5.10;93.00
31455;DHT22;18084;53.028;8.834;2023-02-28T17:34:04;5.10;99.90
31455;DHT22;18084;53.028;8.834;2023-02-28T17:36:29;5.00;1.00
31455;DHT22;18084;53.028;8.834;2023-02-28T17:38:55;4.90;99.90
31455;DHT22;18084;53.028;8.834;2023-02-28T17:41:21;4.90;99.90
31455;DHT22;18084;53.028;8.834;2023-02-28T17:43:47;4.80;99.90